createdAt,value
2018-08-10T00:00:40.598Z,18.94
2018-08-10T00:01:40.585Z,18.86
2018-08-10T00:02:40.573Z,18.85
2018-08-10T00:03:40.557Z,18.94
2018-08-10T00:04:40.546Z,18.89
2018-08-10T00:05:40.533Z,18.97
2018-08-10T00:06:40.520Z,18.98
2018-08-10T00:07:40.505Z,18.82
2018-08-10T00:08:40.495Z,18.78
2018-08-10T00:09:40.484Z,18.79
2018-08-10T00:10:40.468Z,18.74
2018-08-10T00:11:40.457Z,18.63
2018-08-10T00:12:40.443Z,18.64
2018-08-10T00:13:40.433Z,18.63
2018-08-10T00:14:40.418Z,18.56
2018-08-10T00:15:40.409Z,18.63
2018-08-10T00:16:40.394Z,18.61
2018-08-10T00:17:40.385Z,18.58
2018-08-10T00:18:40.371Z,18.48
2018-08-10T00:19:40.354Z,18.54
2018-08-10T00:20:40.343Z,18.41
2018-08-10T00:21:40.329Z,18.49
2018-08-10T00:22:40.319Z,18.51
2018-08-10T00:23:40.308Z,18.48
2018-08-10T00:24:40.291Z,18.46
2018-08-10T00:25:40.282Z,18.57
2018-08-10T00:26:40.280Z,18.57
2018-08-10T00:27:40.249Z,18.70
2018-08-10T00:28:40.236Z,18.71
2018-08-10T00:29:40.225Z,18.68
2018-08-10T00:30:40.212Z,18.71
2018-08-10T00:31:40.198Z,18.58
2018-08-10T00:32:40.188Z,18.63
2018-08-10T00:33:40.172Z,18.60
2018-08-10T00:34:40.162Z,18.56
2018-08-10T00:35:40.150Z,18.51
2018-08-10T00:36:40.133Z,18.52
2018-08-10T00:37:40.123Z,18.60
2018-08-10T00:38:40.107Z,18.56
2018-08-10T00:39:40.094Z,18.54
2018-08-10T00:40:40.082Z,18.57
2018-08-10T00:41:40.067Z,18.48
2018-08-10T00:42:40.056Z,18.38
2018-08-10T00:43:40.042Z,18.36
2018-08-10T00:44:40.036Z,18.41
2018-08-10T00:45:40.019Z,18.36
2018-08-10T00:46:40.003Z,18.30
2018-08-10T00:47:39.988Z,18.33
2018-08-10T00:48:39.977Z,18.42
2018-08-10T00:49:39.963Z,18.41
2018-08-10T00:50:39.951Z,18.43
2018-08-10T00:51:39.940Z,18.41
2018-08-10T00:52:39.929Z,18.28
2018-08-10T00:53:39.915Z,18.24
2018-08-10T00:54:39.902Z,18.21
2018-08-10T00:55:39.888Z,18.13
2018-08-10T00:56:39.873Z,18.18
2018-08-10T00:57:39.860Z,18.01
2018-08-10T00:58:39.849Z,18.01
2018-08-10T00:59:39.835Z,18.08
2018-08-10T01:00:39.818Z,17.99
2018-08-10T01:01:39.810Z,18.09
2018-08-10T01:02:39.793Z,18.15
2018-08-10T01:03:39.782Z,18.02
2018-08-10T01:04:39.769Z,18.05
2018-08-10T01:05:39.754Z,18.11
2018-08-10T01:06:39.749Z,18.11
2018-08-10T01:07:39.727Z,18.01
2018-08-10T01:08:39.715Z,18.11
2018-08-10T01:09:39.704Z,18.24
2018-08-10T01:10:39.690Z,18.23
2018-08-10T01:11:39.675Z,18.15
2018-08-10T01:12:39.663Z,18.03
2018-08-10T01:13:39.649Z,18.02
2018-08-10T01:14:39.638Z,17.99
2018-08-10T01:15:39.622Z,17.99
2018-08-10T01:16:39.607Z,18.05
2018-08-10T01:17:39.597Z,17.90
2018-08-10T01:18:39.593Z,17.93
2018-08-10T01:19:39.572Z,18.05
2018-08-10T01:20:39.565Z,18.08
2018-08-10T01:21:39.547Z,17.99
2018-08-10T01:22:39.529Z,18.06
2018-08-10T01:23:39.516Z,18.03
2018-08-10T01:24:39.503Z,17.99
2018-08-10T01:25:39.491Z,17.91
2018-08-10T01:26:39.480Z,18.02
2018-08-10T01:27:39.460Z,17.90
2018-08-10T01:28:39.520Z,18.01
2018-08-10T01:29:39.434Z,18.01
2018-08-10T01:30:39.421Z,17.99
2018-08-10T01:31:39.411Z,17.97
2018-08-10T01:32:39.397Z,18.02
2018-08-10T01:33:39.397Z,18.05
2018-08-10T01:34:39.369Z,17.91
2018-08-10T01:35:39.353Z,17.99
2018-08-10T01:36:39.340Z,18.03
2018-08-10T01:37:39.325Z,17.97
2018-08-10T01:38:39.316Z,18.05
2018-08-10T01:39:39.296Z,18.05
2018-08-10T01:40:39.287Z,18.06
2018-08-10T01:41:39.276Z,18.06
2018-08-10T01:42:39.258Z,18.06
2018-08-10T01:43:39.244Z,17.96
2018-08-10T01:44:39.232Z,17.96
2018-08-10T01:45:39.217Z,17.99
2018-08-10T01:46:39.217Z,17.90
2018-08-10T01:47:39.192Z,18.02
2018-08-10T01:48:39.177Z,17.96
2018-08-10T01:49:39.168Z,18.03
2018-08-10T01:50:39.152Z,18.15
2018-08-10T01:51:39.138Z,18.21
2018-08-10T01:52:39.125Z,18.13
2018-08-10T01:53:39.109Z,18.12
2018-08-10T01:54:39.098Z,18.08
2018-08-10T01:55:39.086Z,18.05
2018-08-10T01:56:39.070Z,18.05
2018-08-10T01:57:39.061Z,18.01
2018-08-10T01:58:39.045Z,18.05
2018-08-10T01:59:39.027Z,17.96
2018-08-10T02:00:39.016Z,17.88
2018-08-10T02:01:39.003Z,17.91
2018-08-10T02:02:38.990Z,17.94
2018-08-10T02:03:38.978Z,17.97
2018-08-10T02:04:38.963Z,18.08
2018-08-10T02:05:38.950Z,17.99
2018-08-10T02:06:38.935Z,18.05
2018-08-10T02:07:38.927Z,18.05
2018-08-10T02:08:38.908Z,18.03
2018-08-10T02:09:38.896Z,18.06
2018-08-10T02:10:38.882Z,17.97
2018-08-10T02:11:38.874Z,17.86
2018-08-10T02:12:38.856Z,17.87
2018-08-10T02:13:38.845Z,18.01
2018-08-10T02:14:38.832Z,17.99
2018-08-10T02:15:38.815Z,17.83
2018-08-10T02:16:38.800Z,17.81
2018-08-10T02:17:38.787Z,17.78
2018-08-10T02:18:38.774Z,17.81
2018-08-10T02:19:38.761Z,17.73
2018-08-10T02:20:38.746Z,17.73
2018-08-10T02:21:38.742Z,17.71
2018-08-10T02:22:38.720Z,17.69
2018-08-10T02:23:38.708Z,17.72
2018-08-10T02:24:38.740Z,17.59
2018-08-10T02:25:38.683Z,17.76
2018-08-10T02:26:38.667Z,17.68
2018-08-10T02:27:38.654Z,17.54
2018-08-10T02:28:38.640Z,17.46
2018-08-10T02:29:38.634Z,17.57
2018-08-10T02:30:38.612Z,17.53
2018-08-10T02:31:38.611Z,17.59
2018-08-10T02:32:38.587Z,17.53
2018-08-10T02:33:38.571Z,17.50
2018-08-10T02:34:38.559Z,17.52
2018-08-10T02:35:38.545Z,17.52
2018-08-10T02:36:38.532Z,17.54
2018-08-10T02:37:38.522Z,17.66
2018-08-10T02:38:38.507Z,17.66
2018-08-10T02:39:38.492Z,17.66
2018-08-10T02:40:38.478Z,17.71
2018-08-10T02:41:38.464Z,17.71
2018-08-10T02:42:38.450Z,17.73
2018-08-10T02:43:38.441Z,17.73
2018-08-10T02:44:38.424Z,17.71
2018-08-10T02:45:38.410Z,17.81
2018-08-10T02:46:38.398Z,17.79
2018-08-10T02:47:38.382Z,17.79
2018-08-10T02:48:38.369Z,17.87
2018-08-10T02:49:38.355Z,17.84
2018-08-10T02:50:38.342Z,17.86
2018-08-10T02:51:38.331Z,17.72
2018-08-10T02:52:38.316Z,17.75
2018-08-10T02:53:38.302Z,17.83
2018-08-10T02:54:38.289Z,17.72
2018-08-10T02:55:38.280Z,17.66
2018-08-10T02:56:38.260Z,17.53
2018-08-10T02:57:38.303Z,17.52
2018-08-10T02:58:38.235Z,17.66
2018-08-10T02:59:38.219Z,17.66
2018-08-10T03:00:38.206Z,17.71
2018-08-10T03:01:38.193Z,17.81
2018-08-10T03:02:38.181Z,17.71
2018-08-10T03:03:38.166Z,17.59
2018-08-10T03:04:38.154Z,17.62
2018-08-10T03:05:38.142Z,17.52
2018-08-10T03:06:38.124Z,17.52
2018-08-10T03:07:38.111Z,17.63
2018-08-10T03:08:38.098Z,17.65
2018-08-10T03:09:38.083Z,17.68
2018-08-10T03:10:38.074Z,17.53
2018-08-10T03:11:38.060Z,17.54
2018-08-10T03:12:38.045Z,17.46
2018-08-10T03:13:38.030Z,17.50
2018-08-10T03:14:38.015Z,17.50
2018-08-10T03:15:38.000Z,17.56
2018-08-10T03:16:37.985Z,17.56
2018-08-10T03:17:37.972Z,17.46
2018-08-10T03:18:37.964Z,17.45
2018-08-10T03:19:37.947Z,17.59
2018-08-10T03:20:37.937Z,17.49
2018-08-10T03:21:37.919Z,17.39
2018-08-10T03:22:37.909Z,17.47
2018-08-10T03:23:37.896Z,17.38
2018-08-10T03:24:37.884Z,17.47
2018-08-10T03:25:37.865Z,17.43
2018-08-10T03:26:37.852Z,17.38
2018-08-10T03:27:37.836Z,17.39
2018-08-10T03:28:37.822Z,17.19
2018-08-10T03:29:37.808Z,17.25
2018-08-10T03:30:37.801Z,17.24
2018-08-10T03:31:37.783Z,17.25
2018-08-10T03:32:37.768Z,17.24
2018-08-10T03:33:37.756Z,17.25
2018-08-10T03:34:37.740Z,17.16
2018-08-10T03:35:37.725Z,17.14
2018-08-10T03:36:37.712Z,17.16
2018-08-10T03:37:37.701Z,17.27
2018-08-10T03:38:37.689Z,17.25
2018-08-10T03:39:37.670Z,17.17
2018-08-10T03:40:37.658Z,17.22
2018-08-10T03:41:37.644Z,17.34
2018-08-10T03:42:37.629Z,17.35
2018-08-10T03:43:37.617Z,17.27
2018-08-10T03:44:37.602Z,17.34
2018-08-10T03:45:37.590Z,17.31
2018-08-10T03:46:37.577Z,17.14
2018-08-10T03:47:37.559Z,17.17
2018-08-10T03:48:37.546Z,17.16
2018-08-10T03:49:37.532Z,17.27
2018-08-10T03:50:37.517Z,17.30
2018-08-10T03:51:37.502Z,17.30
2018-08-10T03:52:37.487Z,17.27
2018-08-10T03:53:37.475Z,17.25
2018-08-10T03:54:37.460Z,17.28
2018-08-10T03:55:37.449Z,17.20
2018-08-10T03:56:37.433Z,17.12
2018-08-10T03:57:37.419Z,17.12
2018-08-10T03:58:37.408Z,17.20
2018-08-10T03:59:37.390Z,17.20
2018-08-10T04:00:37.381Z,17.22
2018-08-10T04:01:37.363Z,17.22
2018-08-10T04:02:37.348Z,17.17
2018-08-10T04:03:37.333Z,17.09
2018-08-10T04:04:37.323Z,17.09
2018-08-10T04:05:37.308Z,17.07
2018-08-10T04:06:37.296Z,17.12
2018-08-10T04:07:37.281Z,17.09
2018-08-10T04:08:37.266Z,17.09
2018-08-10T04:09:37.259Z,17.01
2018-08-10T04:10:37.243Z,17.01
2018-08-10T04:11:37.223Z,17.07
2018-08-10T04:12:37.209Z,17.02
2018-08-10T04:13:37.196Z,17.02
2018-08-10T04:14:37.187Z,16.97
2018-08-10T04:15:37.169Z,16.99
2018-08-10T04:16:37.154Z,16.92
2018-08-10T04:17:37.138Z,16.91
2018-08-10T04:18:37.128Z,16.72
2018-08-10T04:19:37.112Z,16.73
2018-08-10T04:20:37.101Z,16.83
2018-08-10T04:21:37.084Z,16.87
2018-08-10T04:22:37.071Z,16.82
2018-08-10T04:23:37.056Z,16.90
2018-08-10T04:24:37.045Z,16.90
2018-08-10T04:25:37.031Z,16.94
2018-08-10T04:26:37.017Z,16.73
2018-08-10T04:27:36.999Z,16.70
2018-08-10T04:28:36.986Z,16.74
2018-08-10T04:29:37.050Z,16.77
2018-08-10T04:30:36.957Z,16.83
2018-08-10T04:31:36.951Z,16.82
2018-08-10T04:32:36.933Z,16.82
2018-08-10T04:33:36.914Z,16.76
2018-08-10T04:34:36.899Z,16.67
2018-08-10T04:35:36.884Z,16.92
2018-08-10T04:36:36.872Z,16.82
2018-08-10T04:37:36.859Z,16.88
2018-08-10T04:38:36.865Z,16.90
2018-08-10T04:39:36.828Z,16.90
2018-08-10T04:40:36.818Z,16.87
2018-08-10T04:41:36.810Z,16.80
2018-08-10T04:42:36.789Z,16.73
2018-08-10T04:43:36.777Z,16.70
2018-08-10T04:44:36.759Z,16.84
2018-08-10T04:45:36.750Z,16.84
2018-08-10T04:46:36.732Z,16.82
2018-08-10T04:47:36.717Z,16.91
2018-08-10T04:48:36.705Z,16.94
2018-08-10T04:49:36.690Z,17.04
2018-08-10T04:50:36.675Z,17.14
2018-08-10T04:51:36.667Z,17.17
2018-08-10T04:52:36.648Z,17.22
2018-08-10T04:53:36.636Z,17.14
2018-08-10T04:54:36.620Z,17.22
2018-08-10T04:55:36.608Z,17.25
2018-08-10T04:56:36.592Z,17.30
2018-08-10T04:57:36.580Z,17.28
2018-08-10T04:58:36.564Z,17.27
2018-08-10T04:59:36.551Z,17.31
2018-08-10T05:00:36.539Z,17.19
2018-08-10T05:01:36.524Z,17.20
2018-08-10T05:02:36.509Z,17.35
2018-08-10T05:03:36.553Z,17.19
2018-08-10T05:04:36.479Z,17.24
2018-08-10T05:05:36.466Z,17.25
2018-08-10T05:06:36.454Z,17.14
2018-08-10T05:07:36.442Z,17.10
2018-08-10T05:08:36.428Z,17.04
2018-08-10T05:09:36.419Z,16.95
2018-08-10T05:10:36.405Z,16.91
2018-08-10T05:11:36.390Z,17.04
2018-08-10T05:12:36.369Z,17.09
2018-08-10T05:13:36.354Z,16.97
2018-08-10T05:14:36.345Z,16.97
2018-08-10T05:15:36.374Z,17.10
2018-08-10T05:16:36.312Z,16.95
2018-08-10T05:17:36.306Z,16.97
2018-08-10T05:18:36.284Z,17.14
2018-08-10T05:19:36.271Z,17.14
2018-08-10T05:20:36.262Z,17.10
2018-08-10T05:21:36.245Z,16.94
2018-08-10T05:22:36.234Z,17.01
2018-08-10T05:23:36.226Z,16.94
2018-08-10T05:24:36.206Z,16.91
2018-08-10T05:25:36.193Z,16.87
2018-08-10T05:26:36.175Z,16.90
2018-08-10T05:27:36.163Z,17.04
2018-08-10T05:28:36.153Z,16.97
2018-08-10T05:29:36.139Z,17.04
2018-08-10T05:30:36.121Z,17.19
2018-08-10T05:31:36.113Z,17.28
2018-08-10T05:32:36.096Z,17.30
2018-08-10T05:33:36.079Z,17.30
2018-08-10T05:34:36.066Z,17.25
2018-08-10T05:35:36.055Z,17.14
2018-08-10T05:36:36.037Z,17.07
2018-08-10T05:37:36.025Z,17.12
2018-08-10T05:38:36.009Z,17.06
2018-08-10T05:39:36.000Z,16.95
2018-08-10T05:40:35.983Z,16.95
2018-08-10T05:41:35.970Z,17.04
2018-08-10T05:42:35.963Z,17.04
2018-08-10T05:43:35.940Z,16.99
2018-08-10T05:44:35.925Z,17.06
2018-08-10T05:45:35.913Z,17.10
2018-08-10T05:46:35.901Z,17.17
2018-08-10T05:47:35.888Z,17.19
2018-08-10T05:48:35.874Z,17.32
2018-08-10T05:49:35.858Z,17.35
2018-08-10T05:50:35.852Z,17.39
2018-08-10T05:51:35.832Z,17.43
2018-08-10T05:52:35.920Z,17.34
2018-08-10T05:53:35.809Z,17.30
2018-08-10T05:54:35.795Z,17.39
2018-08-10T05:55:35.775Z,17.47
2018-08-10T05:56:35.767Z,17.45
2018-08-10T05:57:35.815Z,17.46
2018-08-10T05:58:35.734Z,17.50
2018-08-10T05:59:35.724Z,17.49
2018-08-10T06:00:35.714Z,17.52
2018-08-10T06:01:35.694Z,17.50
2018-08-10T06:02:35.682Z,17.49
2018-08-10T06:03:35.705Z,17.41
2018-08-10T06:04:35.655Z,17.45
2018-08-10T06:05:35.642Z,17.43
2018-08-10T06:06:35.625Z,17.53
2018-08-10T06:07:35.618Z,17.50
2018-08-10T06:08:35.599Z,17.50
2018-08-10T06:09:35.586Z,17.46
2018-08-10T06:10:35.575Z,17.57
2018-08-10T06:11:35.560Z,17.52
2018-08-10T06:12:35.542Z,17.62
2018-08-10T06:13:35.530Z,17.56
2018-08-10T06:14:35.517Z,17.71
2018-08-10T06:15:35.579Z,17.73
2018-08-10T06:16:35.493Z,17.84
2018-08-10T06:17:35.479Z,17.88
2018-08-10T06:18:35.468Z,17.90
2018-08-10T06:19:35.570Z,17.87
2018-08-10T06:20:35.441Z,17.88
2018-08-10T06:21:35.484Z,18.03
2018-08-10T06:22:35.410Z,17.99
2018-08-10T06:23:35.396Z,18.12
2018-08-10T06:24:35.383Z,18.17
2018-08-10T06:25:35.373Z,17.96
2018-08-10T06:26:35.357Z,18.03
2018-08-10T06:27:35.360Z,18.05
2018-08-10T06:28:35.332Z,18.13
2018-08-10T06:29:35.319Z,18.20
2018-08-10T06:30:35.314Z,18.23
2018-08-10T06:31:35.291Z,18.27
2018-08-10T06:32:35.283Z,18.38
2018-08-10T06:33:35.273Z,18.38
2018-08-10T06:34:35.257Z,18.28
2018-08-10T06:35:35.242Z,18.41
2018-08-10T06:36:35.226Z,18.24
2018-08-10T06:37:35.217Z,18.30
2018-08-10T06:38:35.209Z,18.33
2018-08-10T06:39:35.185Z,18.30
2018-08-10T06:40:35.173Z,18.42
2018-08-10T06:41:35.165Z,18.41
2018-08-10T06:42:35.147Z,18.36
2018-08-10T06:43:35.139Z,18.30
2018-08-10T06:44:35.122Z,18.33
2018-08-10T06:45:35.110Z,18.30
2018-08-10T06:46:35.097Z,18.41
2018-08-10T06:47:35.087Z,18.63
2018-08-10T06:48:35.077Z,18.66
2018-08-10T06:49:35.058Z,18.74
2018-08-10T06:50:35.052Z,18.81
2018-08-10T06:51:35.035Z,18.79
2018-08-10T06:52:35.018Z,18.74
2018-08-10T06:53:35.007Z,18.81
2018-08-10T06:54:35.003Z,18.75
2018-08-10T06:55:35.034Z,18.64
2018-08-10T06:56:34.969Z,18.74
2018-08-10T06:57:34.956Z,18.70
2018-08-10T06:58:34.947Z,18.75
2018-08-10T06:59:34.930Z,18.76
2018-08-10T07:00:34.950Z,18.85
2018-08-10T07:01:35.015Z,19.00
2018-08-10T07:02:34.893Z,18.94
2018-08-10T07:03:34.885Z,19.01
2018-08-10T07:04:34.868Z,19.13
2018-08-10T07:05:34.856Z,19.13
2018-08-10T07:06:34.848Z,19.15
2018-08-10T07:07:34.892Z,19.12
2018-08-10T07:08:34.822Z,19.12
2018-08-10T07:09:34.818Z,18.88
2018-08-10T07:10:34.798Z,19.07
2018-08-10T07:11:34.780Z,19.05
2018-08-10T07:12:34.769Z,19.00
2018-08-10T07:13:34.778Z,18.91
2018-08-10T07:14:34.746Z,19.08
2018-08-10T07:15:34.733Z,19.17
2018-08-10T07:16:34.721Z,19.19
2018-08-10T07:17:34.711Z,19.13
2018-08-10T07:18:34.700Z,19.08
2018-08-10T07:19:34.686Z,19.09
2018-08-10T07:20:34.672Z,19.22
2018-08-10T07:21:34.661Z,19.23
2018-08-10T07:22:34.654Z,19.37
2018-08-10T07:23:34.636Z,19.42
2018-08-10T07:24:34.633Z,19.42
2018-08-10T07:25:34.610Z,19.32
2018-08-10T07:26:34.603Z,19.31
2018-08-10T07:27:34.589Z,19.35
2018-08-10T07:28:34.577Z,19.37
2018-08-10T07:29:34.890Z,19.49
2018-08-10T07:30:34.878Z,19.50
2018-08-10T07:31:34.540Z,19.57
2018-08-10T07:32:34.541Z,19.62
2018-08-10T07:33:34.514Z,19.53
2018-08-10T07:34:34.507Z,19.64
2018-08-10T07:35:34.824Z,19.63
2018-08-10T07:36:34.480Z,19.75
2018-08-10T07:37:34.470Z,19.87
2018-08-10T07:38:34.521Z,19.99
2018-08-10T07:39:34.452Z,20.07
2018-08-10T07:40:34.440Z,20.15
2018-08-10T07:41:34.432Z,20.12
2018-08-10T07:42:34.425Z,20.00
2018-08-10T07:43:34.472Z,19.93
2018-08-10T07:44:34.419Z,19.97
2018-08-10T07:45:34.415Z,20.14
2018-08-10T07:46:34.498Z,20.25
2018-08-10T07:47:34.383Z,20.41
2018-08-10T07:48:34.381Z,20.15
2018-08-10T07:49:34.370Z,20.18
2018-08-10T07:50:34.364Z,20.41
2018-08-10T07:51:34.354Z,20.63
2018-08-10T07:52:34.348Z,21.00
2018-08-10T07:53:34.356Z,21.34
2018-08-10T07:54:34.340Z,21.73
2018-08-10T07:55:34.331Z,21.66
2018-08-10T07:56:34.332Z,21.45
2018-08-10T07:57:34.322Z,21.38
2018-08-10T07:58:34.318Z,21.66
2018-08-10T07:59:34.312Z,21.96
2018-08-10T08:00:34.309Z,22.44
2018-08-10T08:01:34.304Z,22.41
2018-08-10T08:02:34.311Z,22.48
2018-08-10T08:03:34.297Z,22.53
2018-08-10T08:04:34.294Z,22.55
2018-08-10T08:05:34.294Z,23.13
2018-08-10T08:06:34.289Z,23.23
2018-08-10T08:07:34.287Z,23.34
2018-08-10T08:08:34.283Z,23.69
2018-08-10T08:09:34.287Z,23.96
2018-08-10T08:10:34.356Z,24.63
2018-08-10T08:11:34.286Z,23.84
2018-08-10T08:12:34.291Z,23.84
2018-08-10T08:13:34.293Z,24.84
2018-08-10T08:14:34.278Z,25.28
2018-08-10T08:15:34.273Z,25.30
2018-08-10T08:16:34.275Z,23.79
2018-08-10T08:17:34.283Z,22.81
2018-08-10T08:18:34.281Z,22.19
2018-08-10T08:19:34.371Z,22.31
2018-08-10T08:20:34.272Z,22.13
2018-08-10T08:21:34.269Z,22.52
2018-08-10T08:22:34.267Z,22.07
2018-08-10T08:23:34.263Z,22.62
2018-08-10T08:24:34.261Z,22.71
2018-08-10T08:25:34.259Z,22.49
2018-08-10T08:26:34.255Z,23.74
2018-08-10T08:27:34.253Z,24.44
2018-08-10T08:28:34.249Z,25.30
2018-08-10T08:29:34.247Z,25.73
2018-08-10T08:30:34.313Z,25.81
2018-08-10T08:31:34.254Z,25.71
2018-08-10T08:32:34.243Z,25.92
2018-08-10T08:33:34.245Z,25.73
2018-08-10T08:34:34.321Z,26.24
2018-08-10T08:35:34.243Z,26.95
2018-08-10T08:36:34.239Z,26.34
2018-08-10T08:37:34.254Z,25.96
2018-08-10T08:38:34.246Z,25.49
2018-08-10T08:39:34.242Z,25.85
2018-08-10T08:40:34.241Z,25.45
2018-08-10T08:41:34.243Z,25.16
2018-08-10T08:42:34.245Z,24.94
2018-08-10T08:43:34.251Z,24.91
2018-08-10T08:44:34.245Z,25.71
2018-08-10T08:45:34.398Z,25.49
2018-08-10T08:46:34.589Z,26.08
2018-08-10T08:47:34.250Z,26.20
2018-08-10T08:48:34.252Z,26.51
2018-08-10T08:49:34.256Z,25.64
2018-08-10T08:50:34.258Z,26.01
2018-08-10T08:51:34.256Z,25.75
2018-08-10T08:52:34.259Z,25.53
2018-08-10T08:53:34.256Z,25.33
2018-08-10T08:54:34.260Z,25.73
2018-08-10T08:55:34.258Z,25.64
2018-08-10T08:56:34.260Z,26.07
2018-08-10T08:57:34.259Z,25.01
2018-08-10T08:58:34.258Z,24.26
2018-08-10T08:59:34.258Z,24.89
2018-08-10T09:00:34.264Z,25.63
2018-08-10T09:01:34.269Z,26.78
2018-08-10T09:02:34.258Z,27.12
2018-08-10T09:03:34.260Z,26.67
2018-08-10T09:04:34.257Z,26.58
2018-08-10T09:05:34.259Z,27.00
2018-08-10T09:06:34.283Z,26.97
2018-08-10T09:07:34.319Z,26.98
2018-08-10T09:08:34.262Z,26.49
2018-08-10T09:09:34.264Z,25.68
2018-08-10T09:10:34.258Z,25.19
2018-08-10T09:11:34.263Z,24.33
2018-08-10T09:12:34.258Z,23.60
2018-08-10T09:13:34.295Z,23.55
2018-08-10T09:14:34.252Z,23.33
2018-08-10T09:15:34.252Z,24.16
2018-08-10T09:16:34.249Z,23.98
2018-08-10T09:17:34.337Z,24.19
2018-08-10T09:18:34.240Z,24.23
2018-08-10T09:19:34.246Z,25.18
2018-08-10T09:20:34.232Z,24.38
2018-08-10T09:21:34.229Z,24.01
2018-08-10T09:22:34.236Z,24.65
2018-08-10T09:23:34.219Z,24.89
2018-08-10T09:24:34.216Z,23.76
2018-08-10T09:25:34.209Z,23.15
2018-08-10T09:26:34.209Z,23.01
2018-08-10T09:27:34.202Z,23.28
2018-08-10T09:28:34.194Z,22.83
2018-08-10T09:29:34.189Z,23.79
2018-08-10T09:30:34.187Z,24.70
2018-08-10T09:31:34.176Z,25.74
2018-08-10T09:32:34.171Z,24.44
2018-08-10T09:33:34.175Z,23.31
2018-08-10T09:34:34.159Z,23.04
2018-08-10T09:35:34.154Z,22.73
2018-08-10T09:36:34.146Z,22.55
2018-08-10T09:37:34.138Z,22.12
2018-08-10T09:38:34.198Z,22.16
2018-08-10T09:39:34.127Z,23.79
2018-08-10T09:40:34.118Z,23.07
2018-08-10T09:41:34.120Z,22.80
2018-08-10T09:42:34.105Z,22.52
2018-08-10T09:43:34.094Z,22.16
2018-08-10T09:44:34.085Z,22.00
2018-08-10T09:45:34.081Z,21.75
2018-08-10T09:46:34.070Z,21.65
2018-08-10T09:47:34.068Z,21.63
2018-08-10T09:48:34.056Z,21.77
2018-08-10T09:49:34.046Z,21.71
2018-08-10T09:50:34.041Z,21.63
2018-08-10T09:51:34.031Z,21.60
2018-08-10T09:52:34.018Z,21.50
2018-08-10T09:53:34.010Z,21.35
2018-08-10T09:54:34.005Z,22.67
2018-08-10T09:55:33.991Z,23.92
2018-08-10T09:56:33.987Z,24.53
2018-08-10T09:57:33.974Z,23.96
2018-08-10T09:58:33.967Z,24.48
2018-08-10T09:59:33.961Z,25.67
2018-08-10T10:00:33.948Z,26.64
2018-08-10T10:01:33.938Z,26.51
2018-08-10T10:02:33.932Z,26.10
2018-08-10T10:03:33.919Z,26.20
2018-08-10T10:04:33.911Z,25.78
2018-08-10T10:05:33.901Z,26.20
2018-08-10T10:06:33.941Z,26.70
2018-08-10T10:07:33.895Z,27.41
2018-08-10T10:08:33.882Z,27.40
2018-08-10T10:09:33.874Z,26.15
2018-08-10T10:10:33.865Z,24.90
2018-08-10T10:11:33.853Z,24.48
2018-08-10T10:12:33.856Z,24.08
2018-08-10T10:13:33.837Z,23.70
2018-08-10T10:14:33.832Z,23.39
2018-08-10T10:15:33.832Z,24.59
2018-08-10T10:16:33.812Z,24.94
2018-08-10T10:17:33.949Z,25.59
2018-08-10T10:18:33.800Z,26.11
2018-08-10T10:19:33.786Z,26.01
2018-08-10T10:20:33.778Z,26.61
2018-08-10T10:21:33.772Z,27.07
2018-08-10T10:22:33.764Z,27.41
2018-08-10T10:23:33.759Z,27.47
2018-08-10T10:24:33.746Z,26.90
2018-08-10T10:25:33.750Z,26.94
2018-08-10T10:26:33.733Z,27.72
2018-08-10T10:27:33.725Z,26.93
2018-08-10T10:28:33.718Z,26.86
2018-08-10T10:29:33.714Z,26.76
2018-08-10T10:30:33.700Z,26.65
2018-08-10T10:31:33.695Z,26.70
2018-08-10T10:32:33.699Z,26.03
2018-08-10T10:33:33.677Z,25.96
2018-08-10T10:34:33.674Z,25.49
2018-08-10T10:35:33.666Z,25.27
2018-08-10T10:36:33.657Z,24.79
2018-08-10T10:37:33.646Z,24.48
2018-08-10T10:38:33.641Z,24.36
2018-08-10T10:39:33.641Z,24.07
2018-08-10T10:40:33.631Z,24.00
2018-08-10T10:41:33.696Z,24.31
2018-08-10T10:42:33.614Z,24.62
2018-08-10T10:43:33.604Z,25.12
2018-08-10T10:44:33.590Z,25.66
2018-08-10T10:45:33.591Z,24.97
2018-08-10T10:46:33.582Z,24.96
2018-08-10T10:47:33.565Z,24.86
2018-08-10T10:48:33.557Z,25.27
2018-08-10T10:49:33.554Z,25.56
2018-08-10T10:50:33.547Z,26.01
2018-08-10T10:51:33.554Z,25.93
2018-08-10T10:52:33.530Z,24.91
2018-08-10T10:53:33.521Z,24.63
2018-08-10T10:54:33.509Z,24.45
2018-08-10T10:55:33.566Z,24.48
2018-08-10T10:56:33.567Z,24.56
2018-08-10T10:57:33.489Z,24.74
2018-08-10T10:58:33.481Z,25.04
2018-08-10T10:59:33.472Z,24.89
2018-08-10T11:00:33.462Z,24.99
2018-08-10T11:01:33.462Z,25.08
2018-08-10T11:02:33.449Z,25.01
2018-08-10T11:03:33.434Z,25.33
2018-08-10T11:04:33.430Z,25.70
2018-08-10T11:05:33.420Z,26.04
2018-08-10T11:06:33.425Z,25.98
2018-08-10T11:07:33.408Z,26.03
2018-08-10T11:08:33.393Z,26.41
2018-08-10T11:09:33.387Z,26.56
2018-08-10T11:10:33.380Z,26.20
2018-08-10T11:11:33.380Z,26.38
2018-08-10T11:12:33.364Z,26.60
2018-08-10T11:13:33.359Z,27.03
2018-08-10T11:14:33.352Z,27.00
2018-08-10T11:15:33.342Z,26.76
2018-08-10T11:16:33.336Z,26.76
2018-08-10T11:17:33.325Z,26.71
2018-08-10T11:18:33.320Z,26.61
2018-08-10T11:19:33.317Z,26.39
2018-08-10T11:20:33.302Z,26.10
2018-08-10T11:21:33.294Z,25.75
2018-08-10T11:22:33.293Z,25.71
2018-08-10T11:23:33.287Z,25.31
2018-08-10T11:24:33.275Z,25.31
2018-08-10T11:25:33.343Z,25.68
2018-08-10T11:26:33.258Z,26.05
2018-08-10T11:27:33.248Z,26.10
2018-08-10T11:28:33.242Z,26.39
2018-08-10T11:29:33.237Z,25.98
2018-08-10T11:30:33.227Z,26.15
2018-08-10T11:31:33.222Z,26.21
2018-08-10T11:32:33.214Z,26.03
2018-08-10T11:33:33.204Z,26.19
2018-08-10T11:34:33.196Z,26.31
2018-08-10T11:35:33.190Z,26.58
2018-08-10T11:36:33.188Z,26.82
2018-08-10T11:37:33.177Z,26.90
2018-08-10T11:38:33.165Z,26.90
2018-08-10T11:39:33.158Z,26.65
2018-08-10T11:40:33.152Z,26.64
2018-08-10T11:41:33.151Z,26.45
2018-08-10T11:42:33.140Z,26.23
2018-08-10T11:43:33.130Z,26.00
2018-08-10T11:44:33.125Z,26.23
2018-08-10T11:45:33.114Z,26.11
2018-08-10T11:46:33.110Z,26.31
2018-08-10T11:47:33.099Z,26.51
2018-08-10T11:48:33.094Z,26.04
2018-08-10T11:49:33.084Z,26.11
2018-08-10T11:50:33.110Z,26.07
2018-08-10T11:51:33.069Z,26.11
2018-08-10T11:52:33.118Z,26.08
2018-08-10T11:53:33.054Z,25.58
2018-08-10T11:54:33.049Z,25.73
2018-08-10T11:55:33.039Z,26.03
2018-08-10T11:56:33.035Z,25.96
2018-08-10T11:57:33.060Z,26.16
2018-08-10T11:58:33.021Z,26.36
2018-08-10T11:59:33.009Z,26.15
2018-08-10T12:00:33.005Z,25.45
2018-08-10T12:01:32.996Z,25.15
2018-08-10T12:02:32.995Z,25.08
2018-08-10T12:03:32.983Z,25.26
2018-08-10T12:04:32.980Z,25.31
2018-08-10T12:05:32.972Z,25.16
2018-08-10T12:06:32.956Z,24.91
2018-08-10T12:07:32.947Z,25.23
2018-08-10T12:08:32.945Z,25.18
2018-08-10T12:09:32.934Z,25.55
2018-08-10T12:10:32.927Z,26.01
2018-08-10T12:11:32.915Z,26.03
2018-08-10T12:12:32.925Z,26.19
2018-08-10T12:13:32.904Z,26.51
2018-08-10T12:14:32.898Z,26.71
2018-08-10T12:15:32.885Z,26.78
2018-08-10T12:16:32.879Z,26.82
2018-08-10T12:17:32.876Z,26.65
2018-08-10T12:18:32.866Z,26.31
2018-08-10T12:19:32.862Z,26.61
2018-08-10T12:20:32.858Z,26.38
2018-08-10T12:21:32.842Z,26.43
2018-08-10T12:22:32.832Z,26.43
2018-08-10T12:23:32.831Z,26.00
2018-08-10T12:24:32.858Z,25.59
2018-08-10T12:25:32.812Z,25.49
2018-08-10T12:26:32.805Z,26.03
2018-08-10T12:27:32.796Z,26.36
2018-08-10T12:28:32.800Z,26.58
2018-08-10T12:29:32.781Z,26.65
2018-08-10T12:30:32.774Z,26.63
2018-08-10T12:31:32.770Z,26.80
2018-08-10T12:32:32.771Z,27.05
2018-08-10T12:33:32.751Z,27.03
2018-08-10T12:34:32.745Z,26.64
2018-08-10T12:35:32.737Z,27.00
2018-08-10T12:36:32.733Z,27.01
2018-08-10T12:37:32.723Z,27.40
2018-08-10T12:38:32.720Z,27.34
2018-08-10T12:39:32.718Z,27.16
2018-08-10T12:40:32.705Z,27.08
2018-08-10T12:41:32.698Z,26.78
2018-08-10T12:42:32.686Z,26.83
2018-08-10T12:43:32.679Z,27.10
2018-08-10T12:44:32.676Z,27.31
2018-08-10T12:45:32.665Z,27.30
2018-08-10T12:46:32.679Z,26.90
2018-08-10T12:47:32.652Z,26.95
2018-08-10T12:48:32.646Z,27.03
2018-08-10T12:49:32.638Z,26.61
2018-08-10T12:50:32.651Z,26.36
2018-08-10T12:51:32.622Z,26.07
2018-08-10T12:52:32.617Z,25.98